Time;durP1;ratioP1;P1;durP2;ratioP2;P2;SDS_P1;SDS_P2;PMS_P1;PMS_P2;Temp;Humidity;BMP_temperature;BMP_pressure;BME280_temperature;BME280_humidity;BME280_pressure;Samples;Min_cycle;Max_cycle;Signal;HPM_P1;HPM_P2
2023/08/07 00:01:14;;;;;;;12.88;7.50;;;13.40;99.90;;;;;;5076424;28;20028;-67
2023/08/07 00:03:39;;;;;;;10.90;6.60;;;13.70;99.90;;;;;;5076671;28;20020;-67
2023/08/07 00:06:05;;;;;;;11.57;7.60;;;13.60;99.90;;;;;;5076603;28;20021;-67
2023/08/07 00:08:31;;;;;;;9.55;7.05;;;13.70;99.90;;;;;;5076293;28;20021;-67
2023/08/07 00:11:05;;;;;;;9.30;6.53;;;13.60;99.90;;;;;;5076291;28;20134;-67
2023/08/07 00:13:31;;;;;;;10.60;6.35;;;13.70;99.90;;;;;;5076165;28;20031;-67
2023/08/07 00:15:56;;;;;;;11.32;7.55;;;13.60;99.90;;;;;;5076213;28;20389;-67
2023/08/07 00:18:22;;;;;;;16.33;8.30;;;13.60;99.90;;;;;;5076154;28;20039;-67
2023/08/07 00:20:47;;;;;;;14.30;7.97;;;13.60;99.90;;;;;;5075110;28;20032;-67
2023/08/07 00:23:13;;;;;;;10.63;7.88;;;13.60;99.90;;;;;;5076162;28;20024;-67
2023/08/07 00:25:38;;;;;;;13.68;8.10;;;13.70;99.90;;;;;;5076164;28;20035;-67
2023/08/07 00:28:04;;;;;;;16.50;8.43;;;13.70;99.90;;;;;;5076177;28;20104;-67
2023/08/07 00:30:29;;;;;;;12.27;7.95;;;13.70;99.90;;;;;;5074761;28;20036;-67
2023/08/07 00:32:55;;;;;;;14.80;7.57;;;13.70;99.90;;;;;;5075901;28;20043;-67
2023/08/07 00:35:20;;;;;;;13.20;7.15;;;13.70;99.90;;;;;;5076163;28;20028;-67
2023/08/07 00:37:46;;;;;;;12.30;6.25;;;13.70;99.90;;;;;;5076025;28;20039;-67
2023/08/07 00:40:11;;;;;;;14.07;6.40;;;13.60;99.90;;;;;;5075796;28;20021;-67
2023/08/07 00:42:37;;;;;;;6.82;5.10;;;13.70;99.90;;;;;;5075887;28;20025;-67
2023/08/07 00:45:03;;;;;;;9.38;4.80;;;13.60;99.90;;;;;;5075619;28;20024;-67
2023/08/07 00:47:29;;;;;;;6.70;4.18;;;13.70;99.90;;;;;;5075821;28;20363;-67
2023/08/07 00:49:56;;;;;;;7.78;4.65;;;13.60;99.90;;;;;;5075604;28;20030;-67
2023/08/07 00:52:22;;;;;;;6.95;4.70;;;13.70;99.90;;;;;;5075768;28;20028;-67
2023/08/07 00:54:47;;;;;;;6.65;5.13;;;13.60;99.90;;;;;;5075537;28;20537;-67
2023/08/07 00:57:15;;;;;;;11.00;5.32;;;13.60;99.90;;;;;;5075569;28;20028;-67
2023/08/07 00:59:41;;;;;;;11.18;6.20;;;13.70;99.90;;;;;;5075208;28;20048;-67
2023/08/07 01:02:07;;;;;;;9.63;6.18;;;13.70;99.90;;;;;;5075375;28;20021;-67
2023/08/07 01:04:32;;;;;;;9.23;6.35;;;13.70;99.90;;;;;;5074082;28;20056;-67
2023/08/07 01:06:58;;;;;;;9.63;6.38;;;13.60;99.90;;;;;;5075415;28;20059;-67
2023/08/07 01:09:24;;;;;;;9.75;5.95;;;13.70;99.90;;;;;;5074837;28;20024;-67
2023/08/07 01:11:57;;;;;;;9.95;6.38;;;13.80;99.90;;;;;;5075429;28;20020;-67
2023/08/07 01:14:44;;;;;;;6.72;5.13;;;13.90;99.90;;;;;;5075166;28;20016;-67
2023/08/07 01:17:21;;;;;;;12.20;6.55;;;13.70;99.90;;;;;;5075171;28;20054;-67
2023/08/07 01:19:47;;;;;;;10.35;5.85;;;;;;;;;;5073975;28;20025;-67
2023/08/07 01:22:15;;;;;;;5.78;4.55;;;13.80;99.90;;;;;;5075068;28;20489;-67
2023/08/07 01:24:44;;;;;;;5.70;4.90;;;13.80;99.90;;;;;;5073684;28;20032;-67
2023/08/07 01:30:04;;;;;;;8.18;4.55;;;13.80;99.90;;;;;;5111193;27;20434;-67
2023/08/07 01:32:49;;;;;;;;;;;13.90;99.90;;;;;;5111776;28;20118;-67
2023/08/07 01:35:17;;;;;;;8.50;4.30;;;13.80;99.90;;;;;;5111091;28;19904;-67
2023/08/07 01:37:44;;;;;;;5.10;3.80;;;13.90;99.90;;;;;;5111218;28;20032;-68
2023/08/07 01:40:11;;;;;;;6.68;4.25;;;13.80;99.90;;;;;;5110074;28;20472;-68
2023/08/07 01:42:37;;;;;;;7.15;4.32;;;13.90;99.90;;;;;;5110889;28;20367;-68
2023/08/07 01:45:05;;;;;;;6.88;4.07;;;13.90;99.90;;;;;;5110856;28;20020;-68
2023/08/07 01:47:30;;;;;;;6.50;4.00;;;14.00;99.90;;;;;;5109749;28;20119;-68
2023/08/07 01:49:56;;;;;;;10.38;4.53;;;14.00;99.90;;;;;;5110998;28;20099;-67
2023/08/07 01:52:21;;;;;;;8.55;4.13;;;13.90;99.90;;;;;;5110760;28;20028;-68
2023/08/07 01:54:48;;;;;;;8.90;3.40;;;14.00;99.90;;;;;;5110791;28;20027;-68
2023/08/07 01:57:13;;;;;;;7.32;2.80;;;13.90;99.90;;;;;;5110950;28;20467;-68
2023/08/07 01:59:39;;;;;;;4.88;3.00;;;14.00;99.90;;;;;;5110875;28;20108;-68
2023/08/07 02:02:04;;;;;;;4.30;2.80;;;14.00;99.90;;;;;;5110522;28;20024;-67
2023/08/07 02:04:30;;;;;;;3.90;2.20;;;13.90;99.90;;;;;;5110473;28;20027;-68
2023/08/07 02:06:56;;;;;;;3.90;1.90;;;14.00;99.90;;;;;;5109307;28;20032;-68
2023/08/07 02:09:22;;;;;;;3.97;1.90;;;13.90;99.90;;;;;;5110342;28;20473;-68
2023/08/07 02:11:47;;;;;;;5.93;1.60;;;14.00;99.90;;;;;;5110406;28;20020;-68
2023/08/07 02:14:13;;;;;;;5.07;1.80;;;;;;;;;;5110438;28;20035;-68
2023/08/07 02:16:39;;;;;;;4.38;1.48;;;13.80;99.90;;;;;;5110339;28;20069;-67
2023/08/07 02:19:05;;;;;;;3.65;1.80;;;13.80;99.90;;;;;;5110222;28;20023;-67
2023/08/07 02:21:30;;;;;;;3.92;1.67;;;;;;;;;;5110168;28;20024;-68
2023/08/07 02:23:56;;;;;;;2.25;1.73;;;;;;;;;;5110225;28;20423;-68
2023/08/07 02:26:22;;;;;;;3.70;1.80;;;13.90;99.90;;;;;;5110173;28;20378;-68
2023/08/07 02:28:47;;;;;;;3.83;1.80;;;13.80;99.90;;;;;;5109929;28;20050;-68
2023/08/07 02:31:13;;;;;;;4.68;1.58;;;13.90;99.90;;;;;;5110029;28;20389;-68
2023/08/07 02:33:38;;;;;;;3.30;1.60;;;14.00;99.90;;;;;;5109923;28;20023;-67
2023/08/07 02:36:05;;;;;;;2.25;1.30;;;;;;;;;;5109902;28;20055;-68
2023/08/07 02:38:30;;;;;;;4.88;1.65;;;;;;;;;;5110073;28;20073;-68
2023/08/07 02:40:56;;;;;;;6.70;1.75;;;;;;;;;;5098468;28;20036;-68
2023/08/07 02:43:22;;;;;;;2.67;1.40;;;13.70;99.90;;;;;;5096303;28;20066;-67
2023/08/07 02:45:47;;;;;;;4.82;1.67;;;13.70;99.90;;;;;;5096218;28;20039;-67
2023/08/07 02:48:13;;;;;;;5.75;1.70;;;13.70;99.90;;;;;;5096196;28;20039;-67
2023/08/07 02:50:39;;;;;;;7.05;1.77;;;13.70;99.90;;;;;;5096045;28;20024;-67
2023/08/07 02:53:04;;;;;;;4.78;1.92;;;13.70;99.90;;;;;;5096025;28;20103;-67
2023/08/07 02:55:30;;;;;;;4.50;1.77;;;13.70;99.90;;;;;;5095868;28;20063;-67
2023/08/07 02:57:56;;;;;;;2.72;1.70;;;;;;;;;;5096108;28;20036;-67
2023/08/07 03:00:21;;;;;;;3.97;1.70;;;13.70;99.90;;;;;;5095929;28;20028;-67
2023/08/07 03:02:47;;;;;;;3.53;1.80;;;13.60;99.90;;;;;;5095881;28;20050;-67
2023/08/07 03:05:12;;;;;;;3.65;1.60;;;13.60;99.90;;;;;;5095928;28;20437;-67
2023/08/07 03:07:38;;;;;;;5.43;1.73;;;13.60;99.90;;;;;;5095816;28;20032;-67
2023/08/07 03:10:04;;;;;;;1.90;1.70;;;13.60;99.90;;;;;;5095719;28;20432;-67
2023/08/07 03:12:30;;;;;;;1.60;1.50;;;13.50;99.90;;;;;;5095605;28;20473;-67
2023/08/07 03:14:55;;;;;;;3.58;2.15;;;13.50;99.90;;;;;;5095638;28;20020;-67
2023/08/07 03:17:21;;;;;;;2.72;1.90;;;13.50;99.90;;;;;;5095565;28;20031;-67
2023/08/07 03:19:46;;;;;;;3.45;2.20;;;13.50;99.90;;;;;;5095353;28;20390;-67
2023/08/07 03:22:12;;;;;;;2.95;2.70;;;13.50;99.90;;;;;;5095449;28;20039;-67
2023/08/07 03:24:38;;;;;;;4.80;2.88;;;13.50;99.90;;;;;;5095398;28;20434;-68
2023/08/07 03:27:04;;;;;;;3.97;2.75;;;13.50;99.90;;;;;;5075107;28;20394;-67
2023/08/07 03:29:29;;;;;;;6.78;3.47;;;13.50;99.90;;;;;;5074547;28;20045;-67
2023/08/07 03:31:55;;;;;;;3.90;3.20;;;13.50;99.90;;;;;;5075211;28;20025;-67
2023/08/07 03:34:21;;;;;;;8.85;3.53;;;13.50;99.90;;;;;;5075018;28;20016;-67
2023/08/07 03:36:46;;;;;;;6.65;3.10;;;13.50;99.90;;;;;;5075160;28;20020;-67
2023/08/07 03:39:12;;;;;;;3.38;2.55;;;13.50;99.90;;;;;;5075137;28;20470;-68
2023/08/07 03:41:38;;;;;;;3.35;2.30;;;13.60;99.90;;;;;;5074822;28;20494;-67
2023/08/07 03:44:04;;;;;;;4.32;2.50;;;13.50;99.90;;;;;;5075051;28;20386;-68
2023/08/07 03:46:29;;;;;;;3.72;2.45;;;13.50;99.90;;;;;;5074638;28;20024;-67
2023/08/07 03:48:55;;;;;;;5.13;3.00;;;13.60;99.90;;;;;;5074554;28;20036;-68
2023/08/07 03:51:20;;;;;;;5.78;4.15;;;13.60;99.90;;;;;;5073986;28;20500;-67
2023/08/07 03:53:46;;;;;;;6.97;3.20;;;13.60;99.90;;;;;;5074688;28;20374;-68
2023/08/07 03:56:11;;;;;;;5.85;3.35;;;13.50;99.90;;;;;;5074573;28;20025;-67
2023/08/07 03:58:37;;;;;;;10.55;3.88;;;13.60;99.90;;;;;;5074625;28;20119;-68
2023/08/07 04:01:02;;;;;;;25.88;14.13;;;13.60;99.90;;;;;;5074639;28;20040;-68
2023/08/07 04:03:28;;;;;;;3.95;2.88;;;13.60;99.90;;;;;;5074595;28;20176;-68
2023/08/07 04:05:54;;;;;;;3.10;2.10;;;13.60;99.90;;;;;;5074373;28;20037;-68
2023/08/07 04:08:21;;;;;;;3.80;1.80;;;13.50;99.90;;;;;;5073092;28;20035;-67
2023/08/07 04:10:59;;;;;;;4.00;1.80;;;13.60;99.90;;;;;;5074233;28;20028;-67
2023/08/07 04:13:24;;;;;;;3.40;2.00;;;13.60;99.90;;;;;;5074429;28;20035;-67
2023/08/07 04:15:50;;;;;;;2.05;1.50;;;13.60;99.90;;;;;;5074045;28;20028;-67
2023/08/07 04:18:16;;;;;;;2.45;1.50;;;13.60;99.90;;;;;;5074243;28;20029;-67
2023/08/07 04:20:42;;;;;;;1.83;1.20;;;13.60;99.90;;;;;;5074188;28;20020;-67
2023/08/07 04:23:08;;;;;;;2.00;1.48;;;13.60;99.90;;;;;;5073830;28;20486;-67
2023/08/07 04:25:34;;;;;;;2.78;1.48;;;13.60;99.90;;;;;;5074215;28;20032;-67
2023/08/07 04:27:59;;;;;;;2.65;1.35;;;13.60;99.90;;;;;;5073607;28;20525;-67
2023/08/07 04:30:25;;;;;;;2.00;1.25;;;13.50;99.90;;;;;;5073946;28;20032;-67
2023/08/07 04:32:50;;;;;;;4.30;1.20;;;13.60;99.90;;;;;;5073899;28;20036;-67
2023/08/07 04:35:16;;;;;;;1.95;1.35;;;13.50;99.90;;;;;;5074047;28;20029;-68
2023/08/07 04:37:41;;;;;;;2.25;1.67;;;13.50;99.90;;;;;;5073871;28;20024;-67
2023/08/07 04:40:08;;;;;;;4.38;2.42;;;13.50;99.90;;;;;;5073979;28;20024;-68
2023/08/07 04:42:34;;;;;;;3.83;2.28;;;13.50;99.90;;;;;;5073684;28;20111;-68
2023/08/07 04:44:59;;;;;;;7.63;2.80;;;13.50;99.90;;;;;;5073651;28;20490;-67
2023/08/07 04:47:25;;;;;;;6.45;3.05;;;13.50;99.90;;;;;;5073860;28;20034;-67
2023/08/07 04:49:50;;;;;;;6.10;2.70;;;13.50;99.90;;;;;;5073485;28;20033;-68
2023/08/07 04:52:16;;;;;;;7.28;2.60;;;13.50;99.90;;;;;;5073563;28;20036;-68
2023/08/07 04:54:41;;;;;;;4.72;2.40;;;13.50;99.90;;;;;;5073619;28;20021;-68
2023/08/07 04:57:07;;;;;;;6.25;2.50;;;13.50;99.90;;;;;;5073479;28;20028;-69
2023/08/07 04:59:32;;;;;;;5.57;2.20;;;13.50;99.90;;;;;;5073670;28;20035;-68
2023/08/07 05:01:58;;;;;;;7.30;2.30;;;13.50;99.90;;;;;;5072540;28;20037;-68
2023/08/07 05:04:23;;;;;;;6.80;2.58;;;13.60;99.90;;;;;;5073453;28;20059;-68
2023/08/07 05:06:49;;;;;;;4.10;2.08;;;13.50;99.90;;;;;;5073552;28;20421;-69
2023/08/07 05:09:14;;;;;;;7.35;2.63;;;13.60;99.90;;;;;;5073487;28;20036;-68
2023/08/07 05:11:40;;;;;;;12.52;2.75;;;13.60;99.90;;;;;;5073582;28;20021;-68
2023/08/07 05:14:05;;;;;;;7.00;3.50;;;13.50;99.90;;;;;;5073345;28;20025;-70
2023/08/07 05:16:31;;;;;;;7.85;2.72;;;13.50;99.90;;;;;;5073414;28;20108;-70
2023/08/07 05:18:56;;;;;;;8.10;2.95;;;13.50;99.90;;;;;;5073271;28;20028;-68
2023/08/07 05:21:22;;;;;;;7.30;2.75;;;13.50;99.90;;;;;;5073267;28;20115;-70
2023/08/07 05:23:48;;;;;;;6.95;3.13;;;13.50;99.90;;;;;;5073458;28;20024;-68
2023/08/07 05:26:13;;;;;;;6.18;2.85;;;13.50;99.90;;;;;;5073152;28;20033;-69
2023/08/07 05:28:39;;;;;;;9.02;3.53;;;13.50;99.90;;;;;;5072879;28;20059;-69
2023/08/07 05:31:04;;;;;;;8.32;2.85;;;13.50;99.90;;;;;;5072997;28;20020;-70
2023/08/07 05:33:30;;;;;;;8.38;2.80;;;13.50;99.90;;;;;;5073255;28;20028;-72
2023/08/07 05:35:55;;;;;;;11.35;3.45;;;13.50;99.90;;;;;;5073125;28;20068;-74
2023/08/07 05:38:21;;;;;;;10.88;3.10;;;13.50;99.90;;;;;;5073100;28;20112;-68
2023/08/07 05:40:46;;;;;;;9.07;3.13;;;13.60;99.90;;;;;;5073216;28;20020;-72
2023/08/07 05:43:12;;;;;;;11.80;3.40;;;13.60;99.90;;;;;;5073326;28;20029;-68
2023/08/07 05:45:38;;;;;;;13.98;4.00;;;13.50;99.90;;;;;;5073102;28;20029;-68
2023/08/07 05:48:04;;;;;;;14.10;4.30;;;13.50;99.90;;;;;;5072870;28;20356;-70
2023/08/07 05:50:29;;;;;;;10.32;4.05;;;13.50;99.90;;;;;;5072924;28;20103;-68
2023/08/07 05:52:55;;;;;;;12.50;4.05;;;13.60;99.90;;;;;;5072789;28;20094;-70
2023/08/07 05:55:20;;;;;;;10.00;3.97;;;13.50;99.90;;;;;;5073083;28;20021;-68
2023/08/07 05:57:46;;;;;;;9.75;4.25;;;13.50;99.90;;;;;;5072621;28;20025;-68
2023/08/07 06:00:17;;;;;;;11.80;3.75;;;13.60;99.90;;;;;;5073005;28;20056;-69
2023/08/07 06:02:43;;;;;;;13.70;4.80;;;13.60;99.90;;;;;;5070527;28;20021;-70
2023/08/07 06:05:09;;;;;;;10.00;4.15;;;13.50;99.90;;;;;;5072718;28;20043;-69
2023/08/07 06:07:35;;;;;;;12.70;3.85;;;13.50;99.90;;;;;;5072313;28;20017;-68
2023/08/07 06:10:01;;;;;;;9.43;4.05;;;13.50;99.90;;;;;;5072768;28;20031;-68
2023/08/07 06:12:27;;;;;;;9.70;3.72;;;13.50;99.90;;;;;;5072225;28;20070;-68
2023/08/07 06:14:52;;;;;;;10.20;4.05;;;13.50;99.90;;;;;;5073167;28;20029;-68
2023/08/07 06:17:18;;;;;;;9.15;4.22;;;13.50;99.90;;;;;;5074731;28;20032;-68
2023/08/07 06:19:43;;;;;;;10.77;3.83;;;13.50;99.90;;;;;;5075624;28;20028;-68
2023/08/07 06:22:09;;;;;;;7.45;3.50;;;13.50;99.90;;;;;;5075822;28;20040;-68
2023/08/07 06:24:34;;;;;;;9.40;3.92;;;13.50;99.90;;;;;;5076199;28;20040;-68
2023/08/07 06:27:01;;;;;;;7.75;3.83;;;13.50;99.90;;;;;;5077704;28;20035;-68
2023/08/07 06:29:27;;;;;;;9.98;4.03;;;13.60;99.90;;;;;;5083756;28;20410;-68
2023/08/07 06:31:52;;;;;;;6.15;3.75;;;13.50;99.90;;;;;;5075815;28;20021;-68
2023/08/07 06:34:18;;;;;;;8.65;3.65;;;13.60;99.90;;;;;;5076372;28;20028;-68
2023/08/07 06:36:44;;;;;;;7.50;3.95;;;13.60;99.90;;;;;;5076296;28;20098;-68
2023/08/07 06:39:09;;;;;;;7.72;3.80;;;13.70;99.90;;;;;;5075661;28;20120;-68
2023/08/07 06:41:35;;;;;;;8.48;4.00;;;13.70;99.90;;;;;;5075622;28;20028;-68
2023/08/07 06:44:01;;;;;;;10.40;4.78;;;13.70;99.90;;;;;;5070840;28;20385;-68
2023/08/07 06:46:28;;;;;;;8.05;3.83;;;13.80;99.90;;;;;;5075075;28;20107;-68
2023/08/07 06:48:54;;;;;;;6.20;3.55;;;13.80;99.90;;;;;;5070029;28;20025;-68
2023/08/07 06:51:19;;;;;;;6.25;3.60;;;14.00;99.90;;;;;;5069429;28;20036;-68
2023/08/07 06:53:45;;;;;;;5.65;3.53;;;13.90;99.90;;;;;;5072711;28;20078;-68
2023/08/07 06:56:10;;;;;;;5.78;3.60;;;13.90;99.90;;;;;;5078276;28;20025;-68
2023/08/07 06:58:36;;;;;;;6.20;3.70;;;14.00;99.90;;;;;;5069968;28;20032;-68
2023/08/07 07:01:01;;;;;;;5.38;3.60;;;14.00;99.90;;;;;;5063003;28;20032;-68
2023/08/07 07:03:27;;;;;;;7.45;4.50;;;14.10;99.90;;;;;;5056599;28;20073;-68
2023/08/07 07:05:52;;;;;;;8.95;3.58;;;14.10;99.90;;;;;;5065359;28;20044;-68
2023/08/07 07:08:18;;;;;;;7.57;3.67;;;14.10;99.90;;;;;;5071261;28;20077;-68
2023/08/07 07:10:43;;;;;;;8.15;3.45;;;14.00;99.90;;;;;;5073702;28;20039;-68
2023/08/07 07:13:09;;;;;;;9.20;3.92;;;14.10;99.90;;;;;;5073121;28;20109;-68
2023/08/07 07:15:35;;;;;;;6.70;3.90;;;14.10;99.90;;;;;;5073449;28;20020;-68
2023/08/07 07:18:01;;;;;;;8.05;3.70;;;14.10;99.90;;;;;;5064248;28;20039;-68
2023/08/07 07:20:27;;;;;;;5.13;3.47;;;14.10;99.90;;;;;;5081572;28;20024;-68
2023/08/07 07:22:52;;;;;;;6.85;3.40;;;14.20;99.90;;;;;;5055361;28;20586;-68
2023/08/07 07:25:18;;;;;;;14.25;4.75;;;14.20;99.90;;;;;;5055332;28;20056;-68
2023/08/07 07:27:44;;;;;;;9.18;4.90;;;14.30;99.90;;;;;;5053978;28;20039;-68
2023/08/07 07:30:10;;;;;;;8.55;3.60;;;14.40;99.90;;;;;;5066194;28;20025;-68
2023/08/07 07:32:36;;;;;;;10.05;3.88;;;14.50;99.90;;;;;;5063602;28;20079;-69
2023/08/07 07:35:01;;;;;;;6.68;3.83;;;14.50;99.90;;;;;;5071726;28;20029;-68
2023/08/07 07:37:27;;;;;;;6.22;3.70;;;14.40;99.90;;;;;;5068512;28;20050;-68
2023/08/07 07:39:52;;;;;;;6.20;3.80;;;14.50;99.90;;;;;;5060172;28;20029;-68
2023/08/07 07:42:19;;;;;;;8.27;4.30;;;14.50;99.90;;;;;;5059722;28;20454;-68
2023/08/07 07:44:45;;;;;;;8.63;4.10;;;14.60;99.90;;;;;;5066633;28;20343;-68
2023/08/07 07:47:10;;;;;;;7.35;4.05;;;14.70;99.90;;;;;;5060039;28;20040;-68
2023/08/07 07:49:36;;;;;;;13.00;4.78;;;14.90;99.90;;;;;;5059492;28;20067;-68
2023/08/07 07:52:01;;;;;;;10.68;4.53;;;14.90;99.90;;;;;;5067721;28;20024;-68
2023/08/07 07:54:28;;;;;;;7.53;4.60;;;15.00;99.90;;;;;;5057807;28;20032;-68
2023/08/07 07:56:54;;;;;;;9.27;4.43;;;15.00;99.90;;;;;;5061683;28;20115;-68
2023/08/07 07:59:19;;;;;;;9.70;4.15;;;15.10;99.90;;;;;;5064320;28;20083;-68
2023/08/07 08:01:45;;;;;;;10.20;4.30;;;15.10;99.90;;;;;;5059035;28;20507;-68
2023/08/07 08:04:10;;;;;;;9.75;3.88;;;15.40;99.90;;;;;;5061424;28;20104;-68
2023/08/07 08:06:36;;;;;;;9.10;3.70;;;16.30;99.90;;;;;;5065635;28;20036;-69
2023/08/07 08:09:04;;;;;;;11.70;4.10;;;16.50;99.90;;;;;;5067290;28;20024;-68
2023/08/07 08:11:30;;;;;;;8.98;3.33;;;16.70;99.90;;;;;;5068096;28;20052;-68
2023/08/07 08:13:55;;;;;;;8.68;3.55;;;16.60;99.90;;;;;;5064515;28;20063;-68
2023/08/07 08:16:24;;;;;;;6.68;3.13;;;16.10;99.90;;;;;;5065678;28;20086;-69
2023/08/07 08:18:52;;;;;;;7.88;3.00;;;15.80;99.90;;;;;;5060235;28;20081;-69
2023/08/07 08:21:17;;;;;;;7.03;2.70;;;15.50;99.90;;;;;;5055070;28;20647;-68
2023/08/07 08:23:43;;;;;;;4.80;2.08;;;15.40;99.90;;;;;;5069800;28;20029;-68
2023/08/07 08:26:09;;;;;;;4.55;2.20;;;15.20;99.90;;;;;;5062996;28;20037;-68
2023/08/07 08:28:34;;;;;;;6.03;1.98;;;14.90;99.90;;;;;;5063491;28;20045;-68
2023/08/07 08:31:00;;;;;;;4.65;1.95;;;14.90;99.90;;;;;;5060116;28;20020;-68
2023/08/07 08:33:25;;;;;;;4.53;2.13;;;14.80;99.90;;;;;;5057108;28;20470;-68
2023/08/07 08:35:51;;;;;;;5.55;2.33;;;14.80;99.90;;;;;;5071723;28;20131;-68
2023/08/07 08:38:17;;;;;;;5.90;2.90;;;14.80;99.90;;;;;;5065327;28;20036;-68
2023/08/07 08:40:45;;;;;;;4.78;2.70;;;14.70;99.90;;;;;;5064975;28;20033;-68
2023/08/07 08:43:13;;;;;;;6.32;2.72;;;14.80;99.90;;;;;;5056308;28;20024;-68
2023/08/07 08:45:40;;;;;;;7.28;2.70;;;14.80;99.90;;;;;;5061621;28;20028;-68
2023/08/07 08:48:08;;;;;;;7.47;3.25;;;14.90;99.90;;;;;;5060578;28;20370;-68
2023/08/07 08:50:35;;;;;;;7.78;4.07;;;15.00;99.90;;;;;;5057640;28;20028;-69
2023/08/07 08:53:02;;;;;;;12.75;4.40;;;15.40;99.90;;;;;;5063259;28;20477;-68
2023/08/07 08:55:29;;;;;;;11.20;3.75;;;15.90;99.90;;;;;;5063790;28;20606;-69
2023/08/07 08:57:55;;;;;;;8.00;3.22;;;16.70;99.90;;;;;;5066197;28;20040;-68
2023/08/07 09:00:23;;;;;;;6.97;2.97;;;17.40;99.90;;;;;;5062832;28;20043;-68
2023/08/07 09:02:50;;;;;;;10.68;3.10;;;17.30;99.90;;;;;;5056480;28;20091;-68
2023/08/07 09:05:18;;;;;;;11.77;4.65;;;16.80;99.90;;;;;;5067061;28;20428;-68
2023/08/07 09:07:46;;;;;;;15.20;4.30;;;16.40;99.90;;;;;;5066581;28;20483;-69
2023/08/07 09:10:13;;;;;;;14.05;3.30;;;15.90;99.90;;;;;;5064435;28;20039;-68
2023/08/07 09:12:42;;;;;;;11.30;3.90;;;15.60;99.90;;;;;;5068906;28;20029;-68
2023/08/07 09:15:10;;;;;;;13.07;3.63;;;15.60;99.90;;;;;;5063487;28;20020;-68
2023/08/07 09:17:40;;;;;;;7.90;3.33;;;15.60;99.90;;;;;;5059298;28;20107;-68
2023/08/07 09:20:10;;;;;;;9.48;3.33;;;16.00;99.90;;;;;;5067108;28;20494;-69
2023/08/07 09:22:36;;;;;;;11.65;4.05;;;16.30;99.90;;;;;;5062969;28;20494;-69
2023/08/07 09:25:01;;;;;;;15.75;4.10;;;16.60;99.90;;;;;;5064771;28;20059;-69
2023/08/07 09:27:27;;;;;;;12.27;3.72;;;16.90;99.90;;;;;;5059766;28;20410;-68
2023/08/07 09:29:55;;;;;;;11.90;3.97;;;17.00;99.90;;;;;;5063880;28;20040;-69
2023/08/07 09:32:23;;;;;;;15.00;4.45;;;17.10;99.90;;;;;;5064463;28;20363;-69
2023/08/07 09:34:50;;;;;;;11.00;4.03;;;17.00;99.90;;;;;;5057852;28;20398;-68
2023/08/07 09:37:16;;;;;;;9.77;3.80;;;18.00;99.90;;;;;;5060041;28;20031;-68
2023/08/07 09:39:41;;;;;;;12.25;3.95;;;18.90;94.90;;;;;;5066577;28;20550;-68
2023/08/07 09:42:14;;;;;;;11.73;3.40;;;18.80;95.00;;;;;;5056199;28;20076;-68
2023/08/07 09:44:41;;;;;;;11.48;3.00;;;18.40;44.50;;;;;;5060479;28;20052;-68
2023/08/07 09:47:22;;;;;;;9.10;3.00;;;18.20;44.20;;;;;;5061287;28;20482;-71
2023/08/07 09:49:48;;;;;;;8.65;2.83;;;18.10;83.70;;;;;;5069182;28;20029;-68
2023/08/07 09:52:15;;;;;;;8.98;3.15;;;17.60;97.80;;;;;;5078157;28;20119;-68
2023/08/07 09:54:41;;;;;;;5.30;2.53;;;16.70;99.90;;;;;;5075680;28;20067;-70
2023/08/07 09:57:07;;;;;;;10.15;2.70;;;16.60;99.90;;;;;;5068469;28;20025;-71
2023/08/07 09:59:34;;;;;;;7.07;2.92;;;17.00;99.90;;;;;;5071170;28;20040;-68
2023/08/07 10:02:02;;;;;;;6.72;2.92;;;18.30;90.30;;;;;;5065067;28;20062;-68
2023/08/07 10:04:29;;;;;;;9.82;2.80;;;18.90;75.40;;;;;;5077368;28;20040;-70
2023/08/07 10:06:55;;;;;;;8.05;3.05;;;19.40;1.80;;;;;;5066465;28;20120;-69
2023/08/07 10:09:22;;;;;;;8.57;3.17;;;18.20;20.30;;;;;;5066964;28;20032;-69
2023/08/07 10:11:49;;;;;;;6.13;2.78;;;17.70;43.70;;;;;;5070173;28;20107;-68
2023/08/07 10:14:16;;;;;;;6.80;2.80;;;18.70;31.80;;;;;;5068429;28;20438;-68
2023/08/07 10:16:42;;;;;;;8.50;2.83;;;18.80;1.00;;;;;;5074994;28;20030;-68
2023/08/07 10:19:08;;;;;;;7.97;3.03;;;18.10;5.60;;;;;;5070631;28;20029;-68
2023/08/07 10:21:37;;;;;;;9.57;2.90;;;17.60;35.50;;;;;;5073469;28;20028;-68
2023/08/07 10:24:05;;;;;;;9.05;3.03;;;18.60;20.70;;;;;;5069455;28;20432;-68
2023/08/07 10:26:34;;;;;;;10.82;3.08;;;18.30;1.00;;;;;;5063022;28;20548;-68
2023/08/07 10:29:02;;;;;;;7.40;3.10;;;18.90;1.00;;;;;;5064844;28;20028;-68
2023/08/07 10:31:29;;;;;;;6.97;2.65;;;19.40;1.00;;;;;;5069396;28;20020;-68
2023/08/07 10:33:54;;;;;;;8.45;2.38;;;20.20;1.00;;;;;;5069697;28;20489;-67
2023/08/07 10:36:20;;;;;;;7.18;2.72;;;20.70;99.90;;;;;;5071895;28;20055;-68
2023/08/07 10:38:51;;;;;;;8.13;3.25;;;20.80;99.90;;;;;;5068548;28;20917;-68
2023/08/07 10:41:18;;;;;;;9.25;2.70;;;20.20;99.90;;;;;;5072395;28;20482;-68
2023/08/07 10:43:45;;;;;;;9.45;3.50;;;19.60;1.00;;;;;;5065967;28;20032;-67
2023/08/07 10:46:16;;;;;;;10.40;3.38;;;19.60;1.00;;;;;;5064176;28;20032;-68
2023/08/07 10:48:45;;;;;;;11.30;3.78;;;20.20;99.90;;;;;;5069534;28;20124;-67
2023/08/07 10:51:15;;;;;;;11.52;3.17;;;20.40;99.90;;;;;;5063556;28;20033;-67
2023/08/07 10:53:44;;;;;;;9.88;3.13;;;19.60;99.90;;;;;;5064659;28;20024;-68
2023/08/07 10:56:17;;;;;;;10.50;3.20;;;19.10;1.00;;;;;;5075360;28;20429;-67
2023/08/07 10:58:52;;;;;;;11.10;3.03;;;19.90;1.00;;;;;;5069096;28;20040;-68
2023/08/07 11:01:21;;;;;;;7.10;2.83;;;20.00;99.90;;;;;;5073439;28;20078;-68
2023/08/07 11:03:57;;;;;;;7.97;2.72;;;19.70;99.90;;;;;;5066047;28;20033;-67
2023/08/07 11:06:30;;;;;;;9.10;2.85;;;20.00;7.90;;;;;;5061901;28;20486;-67
2023/08/07 11:08:56;;;;;;;;;;;19.30;1.00;;;;;;5055886;28;20115;-67
2023/08/07 11:11:21;;;;;;;10.98;3.00;;;18.60;99.90;;;;;;5064559;28;19948;-67
2023/08/07 11:13:47;;;;;;;6.22;2.75;;;18.30;99.90;;;;;;5063364;28;20473;-67
2023/08/07 11:16:13;;;;;;;8.52;2.95;;;18.80;99.90;;;;;;5071877;28;20107;-67
2023/08/07 11:18:42;;;;;;;5.80;3.03;;;18.90;41.50;;;;;;5060027;28;20514;-68
2023/08/07 11:21:11;;;;;;;7.72;3.50;;;18.90;1.00;;;;;;5058564;28;20024;-67
2023/08/07 11:23:37;;;;;;;8.68;2.70;;;19.00;99.90;;;;;;5061549;28;20390;-68
2023/08/07 11:26:03;;;;;;;10.13;3.58;;;19.50;99.90;;;;;;5064305;28;20028;-67
2023/08/07 11:28:29;;;;;;;10.00;3.22;;;19.70;99.90;;;;;;5073405;28;20545;-67
2023/08/07 11:30:56;;;;;;;11.15;3.00;;;19.90;99.90;;;;;;5071187;28;20070;-67
2023/08/07 11:33:23;;;;;;;10.73;2.97;;;19.80;1.00;;;;;;5055738;28;20032;-67
2023/08/07 11:35:50;;;;;;;11.50;3.15;;;20.00;99.90;;;;;;5071265;28;20055;-67
2023/08/07 11:38:31;;;;;;;8.48;2.85;;;19.60;99.90;;;;;;5069325;28;20032;-67
2023/08/07 11:40:58;;;;;;;10.18;2.83;;;19.50;99.90;;;;;;5071616;28;20075;-67
2023/08/07 11:43:24;;;;;;;14.02;3.70;;;19.50;14.80;;;;;;5065455;28;20371;-67
2023/08/07 11:45:50;;;;;;;9.63;2.90;;;19.20;99.90;;;;;;5078922;28;20036;-67
2023/08/07 11:48:16;;;;;;;11.15;3.28;;;19.10;99.90;;;;;;5063224;28;20503;-67
2023/08/07 11:50:42;;;;;;;7.63;2.85;;;19.40;99.90;;;;;;5059377;28;20486;-67
2023/08/07 11:53:08;;;;;;;11.77;3.33;;;19.70;99.90;;;;;;5068820;28;20028;-67
2023/08/07 11:55:34;;;;;;;8.52;2.80;;;19.70;99.90;;;;;;5068634;28;20134;-67
2023/08/07 11:58:03;;;;;;;10.10;3.08;;;20.00;1.00;;;;;;5060824;28;20047;-67
2023/08/07 12:00:29;;;;;;;8.88;2.80;;;20.00;99.90;;;;;;5068114;28;20545;-67
2023/08/07 12:02:54;;;;;;;12.25;2.90;;;19.90;99.90;;;;;;5058832;28;20486;-68
2023/08/07 12:05:20;;;;;;;8.95;2.00;;;20.10;1.00;;;;;;5073984;28;20027;-67
2023/08/07 12:07:47;;;;;;;9.95;2.80;;;19.90;61.50;;;;;;5063331;28;20381;-67
2023/08/07 12:10:13;;;;;;;6.55;2.00;;;20.20;93.30;;;;;;5057188;28;20355;-67
2023/08/07 12:12:39;;;;;;;7.10;1.92;;;20.50;1.00;;;;;;5066036;28;20031;-67
2023/08/07 12:15:09;;;;;;;9.65;2.28;;;20.40;99.90;;;;;;5060715;28;20755;-67
2023/08/07 12:17:36;;;;;;;6.70;2.00;;;20.30;1.00;;;;;;5058274;28;20844;-67
2023/08/07 12:20:04;;;;;;;7.72;3.03;;;20.00;89.60;;;;;;5056241;28;20107;-68
2023/08/07 12:22:29;;;;;;;6.65;2.78;;;19.80;1.00;;;;;;5062759;28;20031;-67
2023/08/07 12:24:55;;;;;;;9.80;3.03;;;19.70;2.00;;;;;;5066299;28;20095;-68
2023/08/07 12:27:21;;;;;;;6.22;2.20;;;19.30;99.90;;;;;;5068086;28;20036;-67
2023/08/07 12:29:46;;;;;;;6.25;2.20;;;19.30;1.00;;;;;;5064015;28;20512;-67
2023/08/07 12:32:12;;;;;;;6.63;2.55;;;19.00;1.00;;;;;;5067007;28;20081;-67
2023/08/07 12:34:38;;;;;;;6.85;2.53;;;18.80;1.00;;;;;;5068074;28;20082;-67
2023/08/07 12:37:05;;;;;;;7.72;2.50;;;18.70;60.30;;;;;;5068580;28;20020;-68
2023/08/07 12:39:30;;;;;;;7.05;2.30;;;18.60;1.00;;;;;;5065108;28;20028;-67
2023/08/07 12:41:56;;;;;;;5.57;2.10;;;18.80;1.00;;;;;;5058343;28;20040;-67
2023/08/07 12:44:21;;;;;;;5.88;2.10;;;19.20;99.90;;;;;;5057629;28;20079;-67
2023/08/07 12:46:48;;;;;;;6.38;1.98;;;19.20;99.90;;;;;;5068973;28;20029;-67